Meteo Giornale » Osservazioni meteo Gran Bretagna » Bristol-Lulsgate

ore: 13:50 - Osservazioni Meteo Bristol-Lulsgate
Lat. 51° 23' N Lon. 2° 43' W Alt. 189 metri s.l.m.

coperto_pioggia Europe/London

14 °C

Pioggia Debole

Temp. 24 Ore

10 °C

14 °C

Sud

27.8 Km/h

Dew point 13 °C

Umidità 93 %

Visibilità  10 Km

Il sole sorge alle ore 07:05

Il sole tramonta alle ore 18:57

Data e Ora Cielo e Fenomeni T °C DP °C Um. % Pres. hPa Vis. km Vento km/h
Oggi h: 13:50 coperto_pioggia Pioggia Debole 14 13 93 1011 10 S 27.8
Oggi h: 13:20 coperto_pioggia Pioggia Debole 13 12 93 1012 7 S 22.2
Oggi h: 12:50 coperto_pioggia Pioggia 14 13 93 1013 4 S 24
Oggi h: 12:20 coperto_pioggia Pioggia Debole 13 13 100 1013 10 S 18.5
Oggi h: 11:50 coperto_pioggia Pioggia Debole 14 12 87 1014 10 S 20.3
Oggi h: 11:20 coperto_pioggia Pioggia Debole 14 11 82 1014 10 S 16.7
Oggi h: 10:50 nuvoloso Nuvoloso 14 11 82 1014 10 S 24
Oggi h: 10:20 poco_nuvoloso Poco Nuvoloso 14 12 87 1015 10 S 20.3
Oggi h: 09:50 sereno Sereno 13 11 87 1015 10 S 18.5
Oggi h: 09:20 coperto_pioggia Pioggia Debole 13 11 87 1015 10 S 16.7
Oggi h: 08:50 molto_nuvoloso Molto Nuvoloso 12 10 87 1015 10 S 16.7
Oggi h: 08:20 sereno Sereno 12 9 81 1015 10 S 14.8
Oggi h: 07:50 coperto_pioggia Pioggia Debole 12 9 81 1016 10 S 11.1
Oggi h: 07:20 sereno Sereno 12 9 81 1016 10 S 13
Oggi h: 06:50 coperto_pioggia Pioggia Debole 12 10 87 1016 10 S/SE 13
Oggi h: 06:20 coperto_pioggia Pioggia Debole 12 10 87 1016 10 S 14.8
Oggi h: 05:50 sereno Sereno 12 9 81 1016 10 S 14.8
Oggi h: 04:50 sereno Sereno 11 9 87 1016 10 S 13
Oggi h: 04:20 sereno Sereno 11 9 87 1017 10 S/SO 13
Oggi h: 03:50 sereno Sereno 11 9 87 1017 10 S 13
Oggi h: 03:20 sereno Sereno 11 9 87 1017 10 S/SO 14.8
Oggi h: 02:50 sereno Sereno 11 8 81 1017 10 S/SO 14.8
Oggi h: 02:20 sereno Sereno 10 8 87 1017 10 S/SO 13
Oggi h: 01:50 sereno Sereno 10 8 87 1017 10 S/SO 13
Oggi h: 01:20 sereno Sereno 10 8 87 1017 10 S/SO 13
Oggi h: 00:50 sereno Sereno 10 8 87 1017 10 S/SO 13
Oggi h: 00:20 sereno Sereno 11 8 81 1017 10 S/SO 13
Ieri h: 23:50 sereno Sereno 11 7 76 1017 10 S/SO 13
Ieri h: 23:20 sereno Sereno 11 8 81 1017 10 S/SO 13
Ieri h: 22:50 sereno Sereno 11 7 76 1017 10 SO 14.8
Ieri h: 22:20 sereno Sereno 11 7 76 1017 10 S/SO 14.8
Ieri h: 21:50 sereno Sereno 11 8 81 1017 10 SO 16.7
Ieri h: 21:20 poco_nuvoloso Poco Nuvoloso 11 8 81 1016 10 S/SO 16.7
Ieri h: 20:50 molto_nuvoloso Molto Nuvoloso 11 8 81 1016 10 S/SO 14.8
Ieri h: 20:20 poco_nuvoloso Poco Nuvoloso 12 7 71 1016 10 S/SO 13
Ieri h: 19:50 sereno Sereno 12 8 76 1015 10 SO 13
Ieri h: 19:20 nuvoloso Nuvoloso 12 8 76 1015 10 SO 14.8
Ieri h: 18:50 poco_nuvoloso Poco Nuvoloso 13 8 71 1015 10 SO 13
Ieri h: 18:20 molto_nuvoloso Molto Nuvoloso 12 9 81 1014 10 O 13
Ieri h: 17:50 poco_nuvoloso Poco Nuvoloso 14 9 71 1014 10 O/SO 22.2
Ieri h: 17:20 sereno Sereno 14 9 71 1014 10 SO 20.3
Ieri h: 16:50 nuvoloso Nuvoloso 13 10 81 1013 10 SO 16.7
Ieri h: 16:20 poco_nuvoloso Poco Nuvoloso 13 10 81 1013 10 SO 14.8
Ieri h: 15:50 coperto_pioggia Pioggia Debole 11 9 87 1013 10 O/SO 14.8
Ieri h: 15:20 nuvoloso_piovaschi Debole Rovescio di Pioggia Temporale nelle Vicinanze 12 9 81 1013 6 O 24
Ieri h: 14:50 molto_nuvoloso Molto Nuvoloso 14 10 76 1012 10 O 27.8